Time,TemperatureF,DewpointF,PressureIn,WindDirection,WindDirectionDegrees,WindSpeedMPH,WindSpeedGustMPH,Humidity,HourlyPrecipIn,Conditions,Clouds,dailyrainin,SoftwareType,DateUTC
2013-09-18 00:27:00,50.6,49.0,29.45,North,355,0.0,-999.0,95,-99.99,,,0.00,weatherlink.com 1.10,2013-09-17 23:27:00,
2013-09-18 00:42:00,50.2,49.0,29.46,North,355,0.0,-999.0,94,-99.99,,,0.00,weatherlink.com 1.10,2013-09-17 23:42:00,
2013-09-18 00:57:00,49.6,48.0,29.46,NNW,339,0.0,-999.0,94,-99.99,,,0.00,weatherlink.com 1.10,2013-09-17 23:57:00,
2013-09-18 01:12:00,49.4,48.0,29.46,NNW,340,0.0,-999.0,95,-99.99,,,0.00,weatherlink.com 1.10,2013-09-18 00:12:00,
2013-09-18 01:27:00,49.4,48.0,29.46,NNW,329,0.0,-999.0,95,-99.99,,,0.00,weatherlink.com 1.10,2013-09-18 00:27:00,
2013-09-18 01:42:00,49.2,48.0,29.48,NW,316,0.0,-999.0,95,-99.99,,,0.00,weatherlink.com 1.10,2013-09-18 00:42:00,
2013-09-18 01:57:00,49.1,48.0,29.48,NW,308,0.0,-999.0,94,-99.99,,,0.00,weatherlink.com 1.10,2013-09-18 00:57:00,
2013-09-18 02:12:00,49.0,47.0,29.48,WNW,301,0.0,-999.0,94,-99.99,,,0.00,weatherlink.com 1.10,2013-09-18 01:12:00,
2013-09-18 02:27:00,48.9,47.0,29.50,WNW,290,0.0,-999.0,94,-99.99,,,0.00,weatherlink.com 1.10,2013-09-18 01:27:00,
2013-09-18 02:42:00,48.8,47.0,29.50,WNW,289,0.0,-999.0,94,-99.99,,,0.00,weatherlink.com 1.10,2013-09-18 01:42:00,
2013-09-18 02:57:00,48.7,47.0,29.50,WNW,290,0.0,-999.0,94,-99.99,,,0.00,weatherlink.com 1.10,2013-09-18 01:57:00,
2013-09-18 03:13:00,48.8,47.0,29.51,WNW,289,0.0,-999.0,93,-99.99,,,0.00,weatherlink.com 1.10,2013-09-18 02:13:00,
2013-09-18 03:28:00,48.9,47.0,29.52,West,275,0.0,-999.0,93,-99.99,,,0.00,weatherlink.com 1.10,2013-09-18 02:28:00,
2013-09-18 03:43:00,48.9,47.0,29.52,West,277,0.0,-999.0,93,-99.99,,,0.00,weatherlink.com 1.10,2013-09-18 02:43:00,
2013-09-18 03:58:00,48.9,47.0,29.52,West,277,0.0,-999.0,93,-99.99,,,0.00,weatherlink.com 1.10,2013-09-18 02:58:00,
2013-09-18 04:13:00,48.8,47.0,29.53,West,276,0.0,-999.0,93,-99.99,,,0.00,weatherlink.com 1.10,2013-09-18 03:13:00,
2013-09-18 04:28:00,48.9,47.0,29.53,WNW,284,0.0,-999.0,93,-99.99,,,0.00,weatherlink.com 1.10,2013-09-18 03:28:00,
2013-09-18 04:43:00,48.9,47.0,29.54,NW,314,0.0,-999.0,93,-99.99,,,0.00,weatherlink.com 1.10,2013-09-18 03:43:00,
2013-09-18 04:58:00,48.9,47.0,29.54,WNW,302,0.0,-999.0,93,-99.99,,,0.00,weatherlink.com 1.10,2013-09-18 03:58:00,
2013-09-18 05:13:00,48.8,47.0,29.54,West,263,0.0,-999.0,93,-99.99,,,0.00,weatherlink.com 1.10,2013-09-18 04:13:00,
2013-09-18 05:28:00,48.7,47.0,29.55,West,277,0.0,-999.0,92,-99.99,,,0.00,weatherlink.com 1.10,2013-09-18 04:28:00,
2013-09-18 05:43:00,48.6,46.0,29.56,WNW,286,0.0,-999.0,92,-99.99,,,0.00,weatherlink.com 1.10,2013-09-18 04:43:00,
2013-09-18 05:58:00,48.6,46.0,29.56,West,274,0.0,-999.0,92,-99.99,,,0.00,weatherlink.com 1.10,2013-09-18 04:58:00,
2013-09-18 06:13:00,48.7,47.0,29.57,West,263,0.0,-999.0,92,-99.99,,,0.00,weatherlink.com 1.10,2013-09-18 05:13:00,
2013-09-18 06:28:00,48.7,47.0,29.57,West,271,0.0,-999.0,92,-99.99,,,0.00,weatherlink.com 1.10,2013-09-18 05:28:00,
2013-09-18 06:43:00,48.8,47.0,29.58,West,271,0.0,-999.0,92,-99.99,,,0.00,weatherlink.com 1.10,2013-09-18 05:43:00,
2013-09-18 06:58:00,48.9,47.0,29.58,WNW,288,0.0,-999.0,92,-99.99,,,0.00,weatherlink.com 1.10,2013-09-18 05:58:00,
2013-09-18 07:13:00,48.8,47.0,29.59,West,270,0.0,-999.0,92,-99.99,,,0.00,weatherlink.com 1.10,2013-09-18 06:13:00,
2013-09-18 07:28:00,48.8,47.0,29.60,West,281,0.0,-999.0,92,-99.99,,,0.00,weatherlink.com 1.10,2013-09-18 06:28:00,
2013-09-18 07:43:00,48.9,46.0,29.61,West,268,0.0,-999.0,91,-99.99,,,0.00,weatherlink.com 1.10,2013-09-18 06:43:00,
2013-09-18 07:58:00,49.0,47.0,29.61,WSW,250,0.0,-999.0,91,-99.99,,,0.00,weatherlink.com 1.10,2013-09-18 06:58:00,
2013-09-18 08:13:00,49.0,47.0,29.62,WNW,284,0.0,-999.0,91,-99.99,,,0.00,weatherlink.com 1.10,2013-09-18 07:13:00,
2013-09-18 08:28:00,49.1,47.0,29.63,West,275,0.0,-999.0,91,-99.99,,,0.00,weatherlink.com 1.10,2013-09-18 07:28:00,
2013-09-18 08:43:00,49.2,47.0,29.63,WNW,290,0.0,-999.0,90,-99.99,,,0.00,weatherlink.com 1.10,2013-09-18 07:43:00,
2013-09-18 08:58:00,49.5,47.0,29.64,West,270,0.0,-999.0,90,-99.99,,,0.00,weatherlink.com 1.10,2013-09-18 07:58:00,
2013-09-18 09:13:00,49.8,47.0,29.64,West,281,0.0,-999.0,90,-99.99,,,0.00,weatherlink.com 1.10,2013-09-18 08:13:00,
2013-09-18 09:28:00,50.1,47.0,29.65,WNW,285,0.0,-999.0,89,-99.99,,,0.00,weatherlink.com 1.10,2013-09-18 08:28:00,
2013-09-18 09:43:00,50.8,47.0,29.65,WNW,288,0.0,-999.0,87,-99.99,,,0.00,weatherlink.com 1.10,2013-09-18 08:43:00,
2013-09-18 09:58:00,51.8,48.0,29.66,West,277,0.0,-999.0,85,-99.99,,,0.00,weatherlink.com 1.10,2013-09-18 08:58:00,
2013-09-18 10:13:00,52.4,48.0,29.66,NW,317,0.0,-999.0,84,-99.99,,,0.00,weatherlink.com 1.10,2013-09-18 09:13:00,
2013-09-18 10:28:00,52.3,47.0,29.66,West,269,0.0,-999.0,82,-99.99,,,0.00,weatherlink.com 1.10,2013-09-18 09:28:00,
2013-09-18 10:43:00,52.9,47.0,29.66,WNW,298,0.0,-999.0,81,-99.99,,,0.00,weatherlink.com 1.10,2013-09-18 09:43:00,
2013-09-18 10:58:00,53.6,47.0,29.67,West,277,0.0,-999.0,78,-99.99,,,0.00,weatherlink.com 1.10,2013-09-18 09:58:00,
2013-09-18 11:13:00,53.9,47.0,29.67,NW,307,0.0,-999.0,77,-99.99,,,0.00,weatherlink.com 1.10,2013-09-18 10:13:00,
2013-09-18 11:29:00,54.4,47.0,29.68,NW,317,0.0,-999.0,75,-99.99,,,0.00,weatherlink.com 1.10,2013-09-18 10:29:00,
2013-09-18 11:44:00,54.6,46.0,29.68,WNW,293,0.0,-999.0,73,-99.99,,,0.00,weatherlink.com 1.10,2013-09-18 10:44:00,
2013-09-18 11:59:00,54.6,46.0,29.68,West,274,0.0,-999.0,73,-99.99,,,0.00,weatherlink.com 1.10,2013-09-18 10:59:00,
2013-09-18 12:14:00,54.8,46.0,29.68,West,277,0.0,-999.0,72,-99.99,,,0.00,weatherlink.com 1.10,2013-09-18 11:14:00,
2013-09-18 12:29:00,54.6,46.0,29.69,NW,313,0.0,-999.0,73,-99.99,,,0.00,weatherlink.com 1.10,2013-09-18 11:29:00,
2013-09-18 12:44:00,55.4,46.0,29.69,West,278,0.0,-999.0,71,-99.99,,,0.00,weatherlink.com 1.10,2013-09-18 11:44:00,
2013-09-18 12:59:00,56.0,46.0,29.69,NW,313,0.0,-999.0,70,-99.99,,,0.00,weatherlink.com 1.10,2013-09-18 11:59:00,
2013-09-18 13:14:00,55.7,46.0,29.70,NW,312,0.0,-999.0,70,-99.99,,,0.00,weatherlink.com 1.10,2013-09-18 12:14:00,
2013-09-18 13:29:00,55.2,46.0,29.70,NW,306,0.0,-999.0,72,-99.99,,,0.00,weatherlink.com 1.10,2013-09-18 12:29:00,
2013-09-18 13:44:00,56.6,46.0,29.71,WNW,296,0.0,-999.0,68,-99.99,,,0.00,weatherlink.com 1.10,2013-09-18 12:44:00,
2013-09-18 13:59:00,55.9,46.0,29.72,WNW,302,0.0,-999.0,69,-99.99,,,0.00,weatherlink.com 1.10,2013-09-18 12:59:00,
2013-09-18 14:14:00,56.2,46.0,29.72,WSW,258,0.0,-999.0,68,-99.99,,,0.00,weatherlink.com 1.10,2013-09-18 13:14:00,
2013-09-18 14:29:00,56.3,46.0,29.73,NW,304,0.0,-999.0,69,-99.99,,,0.00,weatherlink.com 1.10,2013-09-18 13:29:00,
2013-09-18 14:44:00,54.1,47.0,29.73,WNW,302,0.0,-999.0,76,-99.99,,,0.00,weatherlink.com 1.10,2013-09-18 13:44:00,
2013-09-18 14:59:00,53.8,47.0,29.73,WNW,284,0.0,-999.0,79,-99.99,,,0.00,weatherlink.com 1.10,2013-09-18 13:59:00,
2013-09-18 15:14:00,55.2,47.0,29.73,NW,309,0.0,-999.0,75,-99.99,,,0.00,weatherlink.com 1.10,2013-09-18 14:14:00,
2013-09-18 15:29:00,56.1,46.0,29.73,NW,310,0.0,-999.0,68,-99.99,,,0.00,weatherlink.com 1.10,2013-09-18 14:29:00,
2013-09-18 15:44:00,56.5,45.0,29.73,WNW,290,0.0,-999.0,66,-99.99,,,0.00,weatherlink.com 1.10,2013-09-18 14:44:00,
2013-09-18 15:59:00,57.2,44.0,29.74,WNW,290,0.0,-999.0,61,-99.99,,,0.00,weatherlink.com 1.10,2013-09-18 14:59:00,
2013-09-18 16:14:00,57.0,44.0,29.74,WNW,292,0.0,-999.0,62,-99.99,,,0.00,weatherlink.com 1.10,2013-09-18 15:14:00,
2013-09-18 16:29:00,56.6,44.0,29.74,WNW,296,0.0,-999.0,63,-99.99,,,0.00,weatherlink.com 1.10,2013-09-18 15:29:00,
2013-09-18 16:44:00,56.4,44.0,29.75,WNW,302,0.0,-999.0,64,-99.99,,,0.00,weatherlink.com 1.10,2013-09-18 15:44:00,
2013-09-18 16:59:00,56.2,44.0,29.75,NW,319,0.0,-999.0,65,-99.99,,,0.00,weatherlink.com 1.10,2013-09-18 15:59:00,
2013-09-18 17:14:00,55.9,44.0,29.75,NW,319,0.0,-999.0,64,-99.99,,,0.00,weatherlink.com 1.10,2013-09-18 16:14:00,
2013-09-18 17:29:00,56.0,44.0,29.75,WNW,291,0.0,-999.0,64,-99.99,,,0.00,weatherlink.com 1.10,2013-09-18 16:29:00,
2013-09-18 17:44:00,56.1,44.0,29.76,WNW,286,0.0,-999.0,64,-99.99,,,0.00,weatherlink.com 1.10,2013-09-18 16:44:00,
2013-09-18 17:59:00,56.5,44.0,29.78,West,275,0.0,-999.0,64,-99.99,,,0.00,weatherlink.com 1.10,2013-09-18 16:59:00,
2013-09-18 18:14:00,55.5,44.0,29.78,NW,306,0.0,-999.0,65,-99.99,,,0.00,weatherlink.com 1.10,2013-09-18 17:14:00,
2013-09-18 18:29:00,55.8,43.0,29.78,WNW,302,0.0,-999.0,63,-99.99,,,0.00,weatherlink.com 1.10,2013-09-18 17:29:00,
2013-09-18 18:44:00,55.4,42.0,29.79,NW,311,0.0,-999.0,62,-99.99,,,0.00,weatherlink.com 1.10,2013-09-18 17:44:00,
2013-09-18 18:59:00,55.4,42.0,29.79,West,274,0.0,-999.0,62,-99.99,,,0.00,weatherlink.com 1.10,2013-09-18 17:59:00,
2013-09-18 19:14:00,54.9,43.0,29.79,WNW,286,0.0,-999.0,64,-99.99,,,0.00,weatherlink.com 1.10,2013-09-18 18:14:00,
2013-09-18 19:29:00,54.5,43.0,29.79,WNW,282,0.0,-999.0,66,-99.99,,,0.00,weatherlink.com 1.10,2013-09-18 18:29:00,
2013-09-18 19:44:00,54.2,44.0,29.79,WNW,283,0.0,-999.0,68,-99.99,,,0.00,weatherlink.com 1.10,2013-09-18 18:44:00,
2013-09-18 19:59:00,54.1,44.0,29.80,WNW,303,0.0,-999.0,69,-99.99,,,0.00,weatherlink.com 1.10,2013-09-18 18:59:00,
2013-09-18 20:14:00,53.9,44.0,29.80,West,280,0.0,-999.0,69,-99.99,,,0.00,weatherlink.com 1.10,2013-09-18 19:14:00,
2013-09-18 20:29:00,53.5,44.0,29.80,WNW,284,0.0,-999.0,69,-99.99,,,0.00,weatherlink.com 1.10,2013-09-18 19:29:00,
2013-09-18 20:44:00,53.0,44.0,29.81,West,271,0.0,-999.0,71,-99.99,,,0.00,weatherlink.com 1.10,2013-09-18 19:44:00,
2013-09-18 20:59:00,52.3,44.0,29.82,West,281,0.0,-999.0,73,-99.99,,,0.00,weatherlink.com 1.10,2013-09-18 19:59:00,
2013-09-18 21:14:00,51.7,43.0,29.82,West,276,0.0,-999.0,73,-99.99,,,0.00,weatherlink.com 1.10,2013-09-18 20:14:00,
2013-09-18 21:29:00,51.4,43.0,29.82,WSW,257,0.0,-999.0,74,-99.99,,,0.00,weatherlink.com 1.10,2013-09-18 20:29:00,
2013-09-18 21:45:00,51.2,43.0,29.82,West,279,0.0,-999.0,74,-99.99,,,0.00,weatherlink.com 1.10,2013-09-18 20:45:00,
2013-09-18 22:00:00,51.1,43.0,29.83,West,271,0.0,-999.0,74,-99.99,,,0.00,weatherlink.com 1.10,2013-09-18 21:00:00,
2013-09-18 22:15:00,51.1,43.0,29.82,West,269,0.0,-999.0,74,-99.99,,,0.00,weatherlink.com 1.10,2013-09-18 21:15:00,
2013-09-18 22:30:00,51.1,43.0,29.82,West,264,0.0,-999.0,75,-99.99,,,0.00,weatherlink.com 1.10,2013-09-18 21:30:00,
2013-09-18 22:45:00,51.2,44.0,29.82,West,267,0.0,-999.0,75,-99.99,,,0.00,weatherlink.com 1.10,2013-09-18 21:45:00,
2013-09-18 23:00:00,51.2,44.0,29.82,West,269,0.0,-999.0,75,-99.99,,,0.00,weatherlink.com 1.10,2013-09-18 22:00:00,
2013-09-18 23:15:00,51.3,44.0,29.82,West,265,0.0,-999.0,75,-99.99,,,0.00,weatherlink.com 1.10,2013-09-18 22:15:00,
2013-09-18 23:30:00,51.4,44.0,29.82,West,263,0.0,-999.0,75,-99.99,,,0.00,weatherlink.com 1.10,2013-09-18 22:30:00,
2013-09-18 23:45:00,51.4,44.0,29.82,WNW,287,0.0,-999.0,76,-99.99,,,0.00,weatherlink.com 1.10,2013-09-18 22:45:00,